Time;durP1;ratioP1;P1;durP2;ratioP2;P2;SDS_P1;SDS_P2;PMS_P1;PMS_P2;Temp;Humidity;BMP_temperature;BMP_pressure;BME280_temperature;BME280_humidity;BME280_pressure;Samples;Min_cycle;Max_cycle;Signal;HPM_P1;HPM_P2
2023/05/31 00:02:52;;;;;;;8.45;5.68;;;;;;;;;;10388699;28;20034;-71
2023/05/31 00:07:53;;;;;;;16.85;8.35;;;;;;;;;;10386074;28;20072;-71
2023/05/31 00:12:53;;;;;;;9.18;6.00;;;;;;;;;;10385994;28;20073;-72
2023/05/31 00:17:53;;;;;;;8.43;5.15;;;;;;;;;;10388327;28;20025;-71
2023/05/31 00:22:53;;;;;;;11.77;5.57;;;;;;;;;;10390471;28;20079;-70
2023/05/31 00:27:55;;;;;;;9.02;5.85;;;;;;;;;;10391168;28;20026;-71
2023/05/31 00:32:55;;;;;;;8.23;5.65;;;;;;;;;;10397533;28;20354;-70
2023/05/31 00:37:55;;;;;;;12.93;5.53;;;;;;;;;;10393190;28;20037;-72
2023/05/31 00:42:56;;;;;;;7.13;5.03;;;;;;;;;;10387993;28;20057;-72
2023/05/31 00:47:56;;;;;;;11.05;6.18;;;;;;;;;;10391295;28;20053;-71
2023/05/31 00:52:57;;;;;;;11.05;6.05;;;;;;;;;;10396982;28;20025;-70
2023/05/31 00:57:57;;;;;;;8.98;6.00;;;;;;;;;;10390662;28;20038;-70
2023/05/31 01:03:02;;;;;;;8.93;6.25;;;;;;;;;;10388517;28;20256;-72
2023/05/31 01:08:02;;;;;;;13.57;6.43;;;;;;;;;;10388770;28;20164;-72
2023/05/31 01:13:11;;;;;;;11.70;5.80;;;;;;;;;;10393152;28;20041;-71
2023/05/31 01:18:24;;;;;;;7.88;5.35;;;;;;;;;;10392915;28;20037;-71
2023/05/31 01:23:25;;;;;;;7.60;5.32;;;;;;;;;;10386505;28;20200;-71
2023/05/31 01:28:26;;;;;;;5.95;4.45;;;;;;;;;;10385661;28;20026;-71
2023/05/31 01:33:27;;;;;;;11.27;5.32;;;;;;;;;;10385546;28;20041;-71
2023/05/31 01:38:27;;;;;;;6.50;4.43;;;;;;;;;;10380513;28;20207;-71
2023/05/31 01:43:28;;;;;;;7.50;4.88;;;;;;;;;;10385884;28;20407;-71
2023/05/31 01:48:28;;;;;;;7.85;5.50;;;;;;;;;;10394126;28;20034;-71
2023/05/31 01:53:28;;;;;;;10.30;4.60;;;;;;;;;;10381509;28;20299;-71
2023/05/31 01:58:32;;;;;;;8.67;4.63;;;;;;;;;;10381574;28;20307;-71
2023/05/31 02:03:32;;;;;;;8.63;4.32;;;;;;;;;;10385595;28;20327;-71
2023/05/31 02:08:32;;;;;;;10.35;4.93;;;;;;;;;;10376542;28;20033;-71
2023/05/31 02:13:33;;;;;;;7.40;4.70;;;;;;;;;;10395160;28;20230;-71
2023/05/31 02:18:35;;;;;;;7.35;4.93;;;;;;;;;;10384352;28;20052;-71
2023/05/31 02:23:35;;;;;;;7.68;4.85;;;;;;;;;;10392839;28;20025;-71
2023/05/31 02:28:35;;;;;;;9.57;4.67;;;;;;;;;;10381440;28;20104;-71
2023/05/31 02:33:36;;;;;;;7.32;4.40;;;;;;;;;;10380864;28;20029;-71
2023/05/31 02:38:36;;;;;;;7.18;4.22;;;;;;;;;;10378278;28;20056;-71
2023/05/31 02:43:36;;;;;;;8.70;4.40;;;;;;;;;;10381589;28;20077;-71
2023/05/31 02:48:37;;;;;;;8.00;4.15;;;;;;;;;;10382263;28;20299;-71
2023/05/31 02:53:37;;;;;;;9.57;5.57;;;;;;;;;;10381249;28;20026;-70
2023/05/31 02:58:40;;;;;;;9.73;4.90;;;;;;;;;;10399209;28;20067;-72
2023/05/31 03:03:41;;;;;;;6.30;4.18;;;;;;;;;;10396795;28;20645;-71
2023/05/31 03:08:41;;;;;;;7.35;4.72;;;;;;;;;;10395200;28;20033;-72
2023/05/31 03:13:41;;;;;;;20.70;5.80;;;;;;;;;;10401093;28;20323;-72
2023/05/31 03:18:42;;;;;;;10.35;6.07;;;;;;;;;;10394056;28;20033;-72
2023/05/31 03:23:42;;;;;;;10.67;6.03;;;;;;;;;;10398292;28;20108;-72
2023/05/31 03:28:42;;;;;;;11.20;6.05;;;;;;;;;;10401117;28;20029;-71
2023/05/31 03:33:42;;;;;;;21.98;6.93;;;;;;;;;;10409359;28;20334;-72
2023/05/31 03:38:43;;;;;;;12.35;6.40;;;;;;;;;;10401226;28;20211;-73
2023/05/31 03:43:43;;;;;;;13.27;7.20;;;;;;;;;;10420407;28;20033;-72
2023/05/31 03:48:43;;;;;;;10.88;5.93;;;;;;;;;;10424591;28;20033;-72
2023/05/31 03:53:43;;;;;;;12.50;6.95;;;;;;;;;;10427427;28;20068;-72
2023/05/31 03:58:44;;;;;;;14.32;6.47;;;;;;;;;;10423840;28;20205;-71
2023/05/31 04:03:48;;;;;;;9.80;6.72;;;;;;;;;;10413243;28;20036;-70
2023/05/31 04:08:48;;;;;;;15.75;7.30;;;;;;;;;;10419360;28;20056;-72
2023/05/31 04:13:48;;;;;;;11.30;6.65;;;;;;;;;;10420301;28;20033;-72
2023/05/31 04:18:49;;;;;;;15.07;7.77;;;;;;;;;;10421208;28;20446;-71
2023/05/31 04:23:49;;;;;;;10.05;7.13;;;;;;;;;;10420203;28;20033;-72
2023/05/31 04:28:53;;;;;;;17.23;7.40;;;;;;;;;;10420243;28;20033;-70
2023/05/31 04:33:56;;;;;;;9.55;6.63;;;;;;;;;;10423696;28;20025;-71
2023/05/31 04:38:57;;;;;;;12.38;7.03;;;;;;;;;;10419916;28;20274;-71
2023/05/31 04:43:57;;;;;;;11.47;6.37;;;;;;;;;;10419897;28;20029;-70
2023/05/31 04:48:58;;;;;;;14.68;7.47;;;;;;;;;;10415866;28;20667;-72
2023/05/31 04:53:58;;;;;;;14.80;8.10;;;;;;;;;;10416680;28;20212;-71
2023/05/31 04:58:59;;;;;;;16.30;6.93;;;;;;;;;;10416571;28;20227;-70
2023/05/31 05:03:59;;;;;;;11.63;6.80;;;;;;;;;;10417586;28;20335;-70
2023/05/31 05:09:03;;;;;;;11.80;6.35;;;;;;;;;;10418555;28;20045;-70
2023/05/31 05:14:03;;;;;;;13.98;7.28;;;;;;;;;;10418368;28;20083;-71
2023/05/31 05:19:03;;;;;;;9.98;6.40;;;;;;;;;;10417254;28;20037;-72
2023/05/31 05:24:04;;;;;;;14.80;7.18;;;;;;;;;;10418047;28;20025;-70
2023/05/31 05:29:04;;;;;;;10.83;6.40;;;;;;;;;;10417335;28;20053;-70
2023/05/31 05:34:07;;;;;;;16.75;7.40;;;;;;;;;;10417966;28;20071;-69
2023/05/31 05:39:07;;;;;;;22.08;7.93;;;;;;;;;;10415965;28;20433;-71
2023/05/31 05:44:08;;;;;;;10.87;6.73;;;;;;;;;;10417367;28;20071;-71
2023/05/31 05:49:11;;;;;;;17.90;7.97;;;;;;;;;;10416667;28;20197;-72
2023/05/31 05:54:12;;;;;;;14.88;7.32;;;;;;;;;;10416710;28;20248;-71
2023/05/31 05:59:12;;;;;;;17.95;7.65;;;;;;;;;;10416568;28;20036;-71
2023/05/31 06:04:12;;;;;;;16.80;7.88;;;;;;;;;;10416176;28;20184;-70
2023/05/31 06:09:12;;;;;;;13.57;6.85;;;;;;;;;;10416484;28;20025;-70
2023/05/31 06:14:13;;;;;;;16.17;7.07;;;;;;;;;;10416241;28;20203;-70
2023/05/31 06:19:13;;;;;;;16.13;6.73;;;;;;;;;;10416077;28;20038;-70
2023/05/31 06:24:13;;;;;;;15.40;6.87;;;;;;;;;;10415241;28;20513;-70
2023/05/31 06:29:14;;;;;;;18.83;7.10;;;;;;;;;;10414235;28;20046;-70
2023/05/31 06:34:14;;;;;;;13.83;6.17;;;;;;;;;;10415327;28;20034;-70
2023/05/31 06:39:14;;;;;;;10.63;6.50;;;;;;;;;;10415023;28;20353;-71
2023/05/31 06:44:15;;;;;;;12.00;6.80;;;;;;;;;;10415315;28;20267;-70
2023/05/31 06:49:15;;;;;;;8.80;5.50;;;;;;;;;;10415586;28;20026;-70
2023/05/31 06:54:15;;;;;;;13.38;6.47;;;;;;;;;;10414663;28;20032;-71
2023/05/31 06:59:15;;;;;;;16.23;6.60;;;;;;;;;;10389445;28;20193;-71
2023/05/31 07:04:18;;;;;;;11.15;6.53;;;;;;;;;;10391733;28;20029;-70
2023/05/31 07:09:19;;;;;;;10.13;5.95;;;;;;;;;;10414211;28;20041;-72
2023/05/31 07:14:19;;;;;;;20.73;6.03;;;;;;;;;;10452769;28;20043;-70
2023/05/31 07:19:19;;;;;;;8.13;5.20;;;;;;;;;;10436111;28;20263;-71
2023/05/31 07:24:20;;;;;;;10.35;4.95;;;;;;;;;;10414373;28;20473;-72
2023/05/31 07:29:20;;;;;;;8.38;5.05;;;;;;;;;;10413940;28;20100;-72
2023/05/31 07:34:23;;;;;;;9.67;5.63;;;;;;;;;;10442516;28;20192;-71
2023/05/31 07:39:24;;;;;;;8.48;4.88;;;;;;;;;;10450781;28;20033;-70
2023/05/31 07:44:24;;;;;;;11.27;4.80;;;;;;;;;;10421758;28;20057;-70
2023/05/31 07:49:25;;;;;;;7.95;4.75;;;;;;;;;;10421539;28;20029;-71
2023/05/31 07:54:25;;;;;;;11.98;5.70;;;;;;;;;;10421388;28;20037;-70
2023/05/31 07:59:28;;;;;;;10.93;4.30;;;;;;;;;;10403564;28;20043;-70
2023/05/31 08:04:29;;;;;;;5.40;3.33;;;;;;;;;;10421388;28;20028;-71
2023/05/31 08:09:30;;;;;;;7.73;4.20;;;;;;;;;;10420747;28;20327;-70
2023/05/31 08:14:30;;;;;;;9.30;3.58;;;;;;;;;;10380832;28;20239;-70
2023/05/31 08:19:31;;;;;;;6.93;3.83;;;;;;;;;;10380102;28;20036;-70
2023/05/31 08:24:31;;;;;;;5.43;3.47;;;;;;;;;;10379522;28;20442;-70
2023/05/31 08:29:31;;;;;;;13.20;6.50;;;;;;;;;;10379305;28;20046;-71
2023/05/31 08:34:31;;;;;;;7.28;3.58;;;;;;;;;;10361800;28;20338;-71
2023/05/31 08:39:32;;;;;;;8.45;3.90;;;;;;;;;;10379230;28;20025;-70
2023/05/31 08:44:32;;;;;;;9.38;4.00;;;;;;;;;;10378539;28;20311;-70
2023/05/31 08:49:34;;;;;;;7.18;4.43;;;;;;;;;;10378154;28;20056;-70
2023/05/31 08:54:35;;;;;;;12.10;5.32;;;;;;;;;;10377163;28;20093;-70
2023/05/31 08:59:36;;;;;;;8.88;4.07;;;;;;;;;;10377766;28;20026;-70
2023/05/31 09:04:39;;;;;;;13.45;5.18;;;;;;;;;;10378025;28;20033;-70
2023/05/31 09:09:39;;;;;;;9.80;4.50;;;;;;;;;;10411126;28;20159;-72
2023/05/31 09:14:40;;;;;;;7.47;4.93;;;;;;;;;;10459447;28;20048;-70
2023/05/31 09:19:41;;;;;;;7.87;4.73;;;;;;;;;;10459367;28;20482;-71
2023/05/31 09:24:54;;;;;;;11.68;5.60;;;;;;;;;;10428661;28;20100;-70
2023/05/31 09:30:11;;;;;;;8.02;5.78;;;;;;;;;;10418153;28;20064;-70
2023/05/31 09:35:13;;;;;;;9.40;5.75;;;;;;;;;;10417429;28;20323;-71
2023/05/31 09:40:14;;;;;;;14.23;7.03;;;;;;;;;;10417237;28;20049;-71
2023/05/31 09:45:15;;;;;;;12.75;7.38;;;;;;;;;;10417165;28;20035;-69
2023/05/31 09:50:22;;;;;;;9.32;6.32;;;;;;;;;;10416879;28;20055;-70
2023/05/31 09:55:22;;;;;;;12.40;7.63;;;;;;;;;;10418204;28;20041;-69
2023/05/31 10:00:26;;;;;;;14.82;7.22;;;;;;;;;;10416715;28;20032;-71
2023/05/31 10:05:26;;;;;;;14.90;7.32;;;;;;;;;;10416147;28;20099;-71
2023/05/31 10:10:27;;;;;;;16.02;5.88;;;;;;;;;;10411949;28;20312;-70
2023/05/31 10:15:31;;;;;;;16.55;6.90;;;;;;;;;;10398684;28;20033;-70
2023/05/31 10:20:38;;;;;;;12.70;5.95;;;;;;;;;;10415584;28;20040;-70
2023/05/31 10:25:39;;;;;;;;;;;;;;;;;;10415886;28;20207;-70
2023/05/31 10:30:40;;;;;;;13.10;5.47;;;;;;;;;;10394877;28;19901;-70
2023/05/31 10:35:41;;;;;;;11.88;5.38;;;;;;;;;;10414811;28;20028;-70
2023/05/31 10:40:45;;;;;;;8.37;4.67;;;;;;;;;;10414940;28;20109;-70
2023/05/31 10:45:51;;;;;;;10.40;5.82;;;;;;;;;;10414883;28;20097;-71
2023/05/31 10:50:52;;;;;;;15.65;6.15;;;;;;;;;;10414739;28;20079;-71
2023/05/31 10:55:58;;;;;;;15.52;7.85;;;;;;;;;;10415654;28;20093;-71
2023/05/31 11:01:02;;;;;;;11.05;6.85;;;;;;;;;;10414987;28;20422;-70
2023/05/31 11:06:03;;;;;;;11.07;7.03;;;;;;;;;;10414508;28;20025;-71
2023/05/31 11:11:22;;;;;;;9.93;6.03;;;;;;;;;;10414523;28;20040;-71
2023/05/31 11:16:22;;;;;;;15.38;6.25;;;;;;;;;;10416463;28;20486;-71
2023/05/31 11:21:41;;;;;;;9.00;5.25;;;;;;;;;;10422301;28;20085;-70
2023/05/31 11:27:11;;;;;;;14.20;4.90;;;;;;;;;;10419110;28;20029;-70
2023/05/31 11:32:11;;;;;;;8.82;4.95;;;;;;;;;;10388327;28;20045;-69
2023/05/31 11:37:12;;;;;;;8.83;4.50;;;;;;;;;;10400767;28;20093;-69
2023/05/31 11:42:13;;;;;;;8.20;4.18;;;;;;;;;;10396720;28;20037;-70
2023/05/31 11:47:17;;;;;;;14.30;4.60;;;;;;;;;;10381009;28;20034;-71
2023/05/31 11:52:18;;;;;;;6.95;4.00;;;;;;;;;;10398552;28;20038;-70
2023/05/31 11:57:20;;;;;;;11.15;4.55;;;;;;;;;;10399010;28;20068;-69
2023/05/31 12:02:21;;;;;;;11.50;5.22;;;;;;;;;;10392729;28;20038;-69
2023/05/31 12:07:21;;;;;;;9.65;5.43;;;;;;;;;;10395793;28;20081;-69
2023/05/31 12:12:22;;;;;;;9.98;4.88;;;;;;;;;;10393683;28;20044;-70
2023/05/31 12:17:22;;;;;;;12.95;6.80;;;;;;;;;;10384583;28;20041;-70
2023/05/31 12:22:23;;;;;;;13.88;6.40;;;;;;;;;;10390459;28;20040;-70
2023/05/31 12:27:24;;;;;;;15.43;5.25;;;;;;;;;;10385229;28;20117;-70
2023/05/31 12:32:28;;;;;;;11.52;5.82;;;;;;;;;;10403845;28;20408;-70
2023/05/31 12:37:32;;;;;;;10.40;5.45;;;;;;;;;;10394862;28;20038;-70
2023/05/31 12:42:32;;;;;;;6.07;3.78;;;;;;;;;;10396323;28;20025;-70
2023/05/31 12:47:33;;;;;;;12.00;4.63;;;;;;;;;;10393181;28;20211;-69
2023/05/31 12:52:34;;;;;;;31.95;17.98;;;;;;;;;;10390456;28;20077;-69
2023/05/31 12:57:35;;;;;;;11.45;7.38;;;;;;;;;;10391712;28;20319;-69
2023/05/31 13:02:36;;;;;;;13.32;6.22;;;;;;;;;;10392003;28;20065;-70
2023/05/31 13:07:38;;;;;;;11.93;5.93;;;;;;;;;;10396084;28;20037;-71
2023/05/31 13:12:38;;;;;;;9.82;5.10;;;;;;;;;;10373385;28;20193;-71
2023/05/31 13:17:38;;;;;;;9.43;4.72;;;;;;;;;;10352969;28;20037;-71
2023/05/31 13:22:39;;;;;;;10.43;5.07;;;;;;;;;;10350121;28;20069;-71
2023/05/31 13:27:39;;;;;;;16.67;5.10;;;;;;;;;;10350083;28;20373;-72
2023/05/31 13:32:39;;;;;;;16.25;6.47;;;;;;;;;;10342721;28;20097;-71
2023/05/31 13:37:40;;;;;;;9.02;4.43;;;;;;;;;;10348884;28;20108;-71
2023/05/31 13:42:40;;;;;;;8.40;4.75;;;;;;;;;;10349668;28;20030;-71
2023/05/31 13:47:41;;;;;;;10.05;5.03;;;;;;;;;;10333068;28;20034;-71
2023/05/31 13:52:41;;;;;;;10.18;4.60;;;;;;;;;;10349693;28;20378;-71
2023/05/31 13:57:42;;;;;;;9.63;5.20;;;;;;;;;;10346878;28;20081;-71
2023/05/31 14:02:42;;;;;;;12.50;5.28;;;;;;;;;;10343395;28;20372;-70
2023/05/31 14:07:43;;;;;;;14.07;5.45;;;;;;;;;;10351288;28;20338;-71
2023/05/31 14:12:43;;;;;;;13.00;4.68;;;;;;;;;;10350799;28;20252;-70
2023/05/31 14:17:43;;;;;;;12.52;6.15;;;;;;;;;;10352928;28;20034;-70
2023/05/31 14:22:43;;;;;;;11.88;5.57;;;;;;;;;;10342732;28;20057;-70
2023/05/31 14:27:44;;;;;;;10.40;5.25;;;;;;;;;;10341188;28;20029;-71
2023/05/31 14:32:44;;;;;;;11.38;4.68;;;;;;;;;;10374748;28;20061;-72
2023/05/31 14:37:45;;;;;;;13.85;6.30;;;;;;;;;;10373860;28;20041;-71
2023/05/31 14:42:45;;;;;;;19.98;5.53;;;;;;;;;;10373998;28;20033;-71
2023/05/31 14:47:45;;;;;;;10.90;5.68;;;;;;;;;;10361142;28;20189;-71
2023/05/31 14:52:45;;;;;;;9.10;5.78;;;;;;;;;;10367665;28;20311;-71
2023/05/31 14:57:46;;;;;;;8.63;5.30;;;;;;;;;;10373260;28;20036;-70
2023/05/31 15:02:46;;;;;;;22.25;6.82;;;;;;;;;;10362586;28;20084;-71
2023/05/31 15:07:46;;;;;;;18.33;7.37;;;;;;;;;;10373557;28;20080;-72
2023/05/31 15:12:47;;;;;;;17.17;7.40;;;;;;;;;;10373152;28;20050;-71
2023/05/31 15:17:48;;;;;;;16.07;7.37;;;;;;;;;;10373568;28;20033;-72
2023/05/31 15:22:48;;;;;;;16.55;7.55;;;;;;;;;;10372453;28;20265;-71
2023/05/31 15:27:48;;;;;;;12.98;7.78;;;;;;;;;;10356095;28;20041;-71
2023/05/31 15:32:49;;;;;;;17.30;8.73;;;;;;;;;;10341939;28;20026;-72
2023/05/31 15:37:50;;;;;;;22.10;8.23;;;;;;;;;;10373129;28;20048;-72
2023/05/31 15:42:50;;;;;;;28.02;8.20;;;;;;;;;;10334444;28;20292;-72
2023/05/31 15:47:51;;;;;;;30.25;8.02;;;;;;;;;;10363547;28;20073;-71
2023/05/31 15:52:51;;;;;;;13.97;6.97;;;;;;;;;;10352278;28;20466;-72
2023/05/31 15:57:51;;;;;;;18.47;7.70;;;;;;;;;;10336593;28;20117;-72
2023/05/31 16:02:52;;;;;;;20.20;7.17;;;;;;;;;;10359671;28;20041;-71
2023/05/31 16:07:53;;;;;;;14.77;6.80;;;;;;;;;;10358342;28;20431;-72
2023/05/31 16:12:53;;;;;;;22.05;6.68;;;;;;;;;;10349138;28;20046;-72
2023/05/31 16:17:54;;;;;;;17.83;6.50;;;;;;;;;;10347614;28;20058;-71
2023/05/31 16:22:55;;;;;;;12.18;6.55;;;;;;;;;;10354970;28;20066;-72
2023/05/31 16:27:55;;;;;;;11.37;5.57;;;;;;;;;;10354682;28;20054;-71
2023/05/31 16:32:55;;;;;;;11.98;6.25;;;;;;;;;;10377494;28;20021;-71
2023/05/31 16:37:56;;;;;;;14.52;6.40;;;;;;;;;;10378918;28;20034;-69
2023/05/31 16:42:56;;;;;;;13.48;7.30;;;;;;;;;;10360612;28;20347;-71
2023/05/31 16:47:56;;;;;;;18.27;8.52;;;;;;;;;;10402814;28;20056;-71
2023/05/31 16:52:57;;;;;;;18.95;9.90;;;;;;;;;;10393518;28;20037;-73
2023/05/31 16:57:57;;;;;;;21.58;11.13;;;;;;;;;;10374526;28;20084;-74
2023/05/31 17:02:57;;;;;;;21.13;10.07;;;;;;;;;;10367924;28;20037;-74
2023/05/31 17:07:57;;;;;;;21.65;8.57;;;;;;;;;;10360357;28;20033;-73
2023/05/31 17:12:58;;;;;;;30.70;8.60;;;;;;;;;;10342409;28;20169;-71
2023/05/31 17:17:58;;;;;;;22.30;8.38;;;;;;;;;;10362084;28;20033;-71
2023/05/31 17:22:58;;;;;;;14.25;6.57;;;;;;;;;;10357572;28;20026;-73
2023/05/31 17:27:59;;;;;;;16.25;6.97;;;;;;;;;;10348705;28;20034;-71
2023/05/31 17:32:59;;;;;;;17.27;7.20;;;;;;;;;;10334170;28;20244;-71
2023/05/31 17:38:00;;;;;;;14.55;6.60;;;;;;;;;;10370327;28;20293;-72
2023/05/31 17:43:00;;;;;;;13.60;7.07;;;;;;;;;;10359059;28;20083;-73
2023/05/31 17:48:00;;;;;;;15.63;6.77;;;;;;;;;;10357317;28;20179;-72
2023/05/31 17:53:00;;;;;;;18.65;8.13;;;;;;;;;;10352286;28;20340;-68
2023/05/31 17:58:01;;;;;;;21.30;7.73;;;;;;;;;;10368070;28;20149;-76
2023/05/31 18:03:01;;;;;;;20.05;7.72;;;;;;;;;;10354406;28;20093;-77
2023/05/31 18:08:01;;;;;;;20.70;8.45;;;;;;;;;;10354314;28;20351;-76
2023/05/31 18:13:02;;;;;;;15.80;7.57;;;;;;;;;;10360282;28;20068;-76
2023/05/31 18:18:02;;;;;;;18.07;7.07;;;;;;;;;;10371983;28;20130;-77
2023/05/31 18:23:02;;;;;;;27.53;7.73;;;;;;;;;;10361873;28;20034;-77
2023/05/31 18:28:03;;;;;;;17.83;8.40;;;;;;;;;;10351467;28;20026;-75
2023/05/31 18:33:03;;;;;;;20.60;9.07;;;;;;;;;;10344028;28;20288;-72
2023/05/31 18:38:04;;;;;;;13.38;6.65;;;;;;;;;;10346227;28;20325;-72
2023/05/31 18:43:05;;;;;;;24.37;7.50;;;;;;;;;;10340927;28;20148;-72
2023/05/31 18:48:06;;;;;;;22.67;8.00;;;;;;;;;;10345247;28;20061;-72
2023/05/31 18:53:06;;;;;;;26.63;8.85;;;;;;;;;;10344879;28;20037;-72
2023/05/31 18:58:06;;;;;;;19.00;8.70;;;;;;;;;;10343938;28;20034;-71
2023/05/31 19:03:07;;;;;;;18.98;7.47;;;;;;;;;;10344575;28;20034;-74
2023/05/31 19:08:07;;;;;;;14.32;7.70;;;;;;;;;;10327830;28;20212;-72
2023/05/31 19:13:09;;;;;;;20.80;7.40;;;;;;;;;;10339570;28;20145;-74
2023/05/31 19:18:09;;;;;;;26.42;9.30;;;;;;;;;;10342031;28;20105;-74
2023/05/31 19:23:09;;;;;;;14.45;8.30;;;;;;;;;;10343843;28;20201;-73
2023/05/31 19:28:10;;;;;;;21.13;8.10;;;;;;;;;;10346782;28;20130;-74
2023/05/31 19:33:11;;;;;;;24.40;12.18;;;;;;;;;;10345702;28;20366;-72
2023/05/31 19:38:12;;;;;;;17.08;9.50;;;;;;;;;;10354585;28;20038;-71
2023/05/31 19:43:12;;;;;;;18.03;8.70;;;;;;;;;;10353354;28;20026;-72
2023/05/31 19:48:12;;;;;;;11.73;5.63;;;;;;;;;;10355234;28;20319;-72
2023/05/31 19:53:12;;;;;;;11.45;5.40;;;;;;;;;;10352824;28;20023;-74
2023/05/31 19:58:13;;;;;;;7.97;5.47;;;;;;;;;;10355173;28;20042;-73
2023/05/31 20:03:13;;;;;;;10.35;6.38;;;;;;;;;;10354812;28;20034;-73
2023/05/31 20:08:15;;;;;;;12.15;6.20;;;;;;;;;;10355586;28;20270;-74
2023/05/31 20:13:16;;;;;;;14.40;6.15;;;;;;;;;;10380163;28;20054;-74
2023/05/31 20:18:18;;;;;;;11.50;5.25;;;;;;;;;;10393299;28;20232;-73
2023/05/31 20:23:18;;;;;;;13.52;5.65;;;;;;;;;;10396475;28;20033;-72
2023/05/31 20:28:18;;;;;;;9.68;4.57;;;;;;;;;;10405504;28;20037;-73
2023/05/31 20:33:19;;;;;;;11.38;4.82;;;;;;;;;;10403291;28;20038;-74
2023/05/31 20:38:19;;;;;;;7.82;3.95;;;;;;;;;;10401755;28;20329;-73
2023/05/31 20:43:20;;;;;;;8.93;4.18;;;;;;;;;;10393953;28;20239;-75
2023/05/31 20:48:20;;;;;;;10.17;4.20;;;;;;;;;;10386564;28;20022;-74
2023/05/31 20:53:20;;;;;;;9.57;4.22;;;;;;;;;;10391307;28;20283;-76
2023/05/31 20:58:20;;;;;;;8.93;3.70;;;;;;;;;;10390599;28;20026;-75
2023/05/31 21:03:21;;;;;;;10.10;4.10;;;;;;;;;;10383367;28;20269;-75
2023/05/31 21:08:21;;;;;;;10.95;4.35;;;;;;;;;;10390737;28;20064;-73
2023/05/31 21:13:21;;;;;;;24.38;4.60;;;;;;;;;;10383055;28;20294;-76
2023/05/31 21:18:21;;;;;;;9.05;4.78;;;;;;;;;;10387494;28;20609;-74
2023/05/31 21:23:22;;;;;;;12.52;4.25;;;;;;;;;;10385408;28;20021;-75
2023/05/31 21:28:22;;;;;;;7.80;4.78;;;;;;;;;;10415832;28;20273;-70
2023/05/31 21:33:22;;;;;;;8.90;4.75;;;;;;;;;;10416558;28;20021;-70
2023/05/31 21:38:22;;;;;;;8.77;4.72;;;;;;;;;;10414666;28;20028;-71
2023/05/31 21:43:23;;;;;;;8.80;4.03;;;;;;;;;;10415002;28;20029;-72
2023/05/31 21:48:23;;;;;;;8.50;4.13;;;;;;;;;;10415856;28;20323;-72
2023/05/31 21:53:23;;;;;;;9.45;4.28;;;;;;;;;;10416759;28;20033;-71
2023/05/31 21:58:23;;;;;;;9.15;4.28;;;;;;;;;;10415941;28;20026;-71
2023/05/31 22:03:24;;;;;;;7.22;4.30;;;;;;;;;;10416122;28;20315;-71
2023/05/31 22:08:24;;;;;;;8.50;4.00;;;;;;;;;;10415960;28;20508;-71
2023/05/31 22:13:26;;;;;;;9.23;4.20;;;;;;;;;;10415891;28;20045;-71
2023/05/31 22:18:30;;;;;;;9.13;4.28;;;;;;;;;;10415803;28;20040;-71
2023/05/31 22:23:30;;;;;;;8.20;4.20;;;;;;;;;;10415826;28;20452;-71
2023/05/31 22:28:31;;;;;;;8.10;4.78;;;;;;;;;;10415336;28;20036;-71
2023/05/31 22:33:31;;;;;;;13.65;5.07;;;;;;;;;;10415575;28;20101;-70
2023/05/31 22:38:31;;;;;;;6.97;4.85;;;;;;;;;;10415252;28;20073;-71
2023/05/31 22:43:31;;;;;;;16.42;5.85;;;;;;;;;;10414651;28;20028;-71
2023/05/31 22:48:36;;;;;;;8.63;5.47;;;;;;;;;;10415043;28;20021;-71
2023/05/31 22:53:36;;;;;;;10.57;5.18;;;;;;;;;;10414652;28;20037;-71
2023/05/31 22:58:37;;;;;;;8.23;5.07;;;;;;;;;;10414320;28;20049;-71
2023/05/31 23:03:37;;;;;;;10.65;5.82;;;;;;;;;;10413797;28;20020;-72
2023/05/31 23:08:43;;;;;;;13.73;5.90;;;;;;;;;;10414692;28;20041;-72
2023/05/31 23:13:43;;;;;;;11.02;6.03;;;;;;;;;;10378713;28;20029;-72
2023/05/31 23:18:43;;;;;;;12.87;6.20;;;;;;;;;;10421704;28;20064;-71
2023/05/31 23:23:44;;;;;;;8.13;5.30;;;;;;;;;;10422384;28;20405;-72
2023/05/31 23:28:44;;;;;;;9.30;6.17;;;;;;;;;;10422221;28;20088;-72
2023/05/31 23:33:44;;;;;;;12.83;6.27;;;;;;;;;;10421997;28;20231;-71
2023/05/31 23:38:46;;;;;;;14.60;6.05;;;;;;;;;;10421850;28;20402;-71
2023/05/31 23:43:47;;;;;;;13.23;5.57;;;;;;;;;;10421885;28;20025;-71
2023/05/31 23:48:47;;;;;;;10.80;6.17;;;;;;;;;;10422017;28;20455;-71
2023/05/31 23:53:47;;;;;;;13.30;7.00;;;;;;;;;;10421509;28;20033;-70
2023/05/31 23:58:48;;;;;;;13.18;6.93;;;;;;;;;;10420854;28;20247;-70
